Time;durP1;ratioP1;P1;durP2;ratioP2;P2;SDS_P1;SDS_P2;PMS_P1;PMS_P2;Temp;Humidity;BMP_temperature;BMP_pressure;BME280_temperature;BME280_humidity;BME280_pressure;Samples;Min_cycle;Max_cycle;Signal;HPM_P1;HPM_P2
2021/09/05 00:01:23;;;;;;;8.23;4.50;;;;;;;12.38;66.51;101148.86;1724445;83;21504;-76
2021/09/05 00:03:49;;;;;;;8.25;4.47;;;;;;;12.35;66.55;101157.19;1724283;83;21066;-76
2021/09/05 00:06:15;;;;;;;9.90;5.30;;;;;;;12.32;66.58;101152.17;1724424;83;21051;-76
2021/09/05 00:08:43;;;;;;;8.95;5.03;;;;;;;12.28;66.61;101150.00;1724645;83;21143;-76
2021/09/05 00:11:11;;;;;;;9.00;4.87;;;;;;;12.26;66.65;101160.84;1724616;83;21578;-77
2021/09/05 00:13:37;;;;;;;8.35;4.37;;;;;;;12.24;66.68;101156.17;1723978;83;21007;-77
2021/09/05 00:16:03;;;;;;;11.20;4.75;;;;;;;12.24;66.75;101154.84;1724761;83;21019;-77
2021/09/05 00:18:29;;;;;;;8.83;4.53;;;;;;;12.24;66.74;101158.01;1723701;83;21002;-76
2021/09/05 00:20:55;;;;;;;11.78;4.60;;;;;;;12.22;66.78;101152.81;1743295;82;21484;-77
2021/09/05 00:23:21;;;;;;;11.90;4.47;;;;;;;12.21;66.80;101159.14;1743434;82;21911;-77
2021/09/05 00:25:47;;;;;;;9.38;4.08;;;;;;;12.20;66.82;101158.83;1743275;82;21563;-77
2021/09/05 00:28:13;;;;;;;9.30;5.08;;;;;;;12.18;66.83;101158.13;1743694;82;20984;-77
2021/09/05 00:30:39;;;;;;;9.28;4.40;;;;;;;12.16;66.84;101158.81;1755638;81;20991;-77
2021/09/05 00:33:07;;;;;;;14.15;4.58;;;;;;;12.15;66.86;101171.83;1756010;81;21129;-77
2021/09/05 00:35:34;;;;;;;9.43;4.72;;;;;;;12.12;66.90;101171.31;1756199;81;21484;-76
2021/09/05 00:38:01;;;;;;;13.18;4.28;;;;;;;12.10;66.92;101170.16;1755865;81;21087;-76
2021/09/05 00:40:27;;;;;;;16.15;5.92;;;;;;;12.08;66.94;101168.63;1756163;81;21000;-76
2021/09/05 00:42:53;;;;;;;10.30;4.35;;;;;;;12.06;66.94;101177.31;1756088;81;21070;-76
2021/09/05 00:45:19;;;;;;;8.95;4.50;;;;;;;12.03;66.98;101171.80;1756148;81;21074;-77
2021/09/05 00:47:45;;;;;;;9.13;4.45;;;;;;;12.03;67.02;101173.63;1756035;81;21536;-76
2021/09/05 00:50:12;;;;;;;12.60;4.58;;;;;;;12.00;67.03;101172.09;1756155;81;21086;-76
2021/09/05 00:52:39;;;;;;;15.10;4.30;;;;;;;11.96;67.06;101175.58;1755939;81;21015;-76
2021/09/05 00:55:06;;;;;;;11.93;4.72;;;;;;;11.95;67.09;101179.77;1756033;81;21551;-76
2021/09/05 00:57:32;;;;;;;10.98;4.58;;;;;;;11.92;67.13;101176.09;1755964;81;21084;-76
2021/09/05 00:59:59;;;;;;;10.08;4.37;;;;;;;11.89;67.16;101176.41;1755893;81;21083;-76
2021/09/05 01:02:25;;;;;;;7.35;4.10;;;;;;;11.87;67.20;101177.89;1756158;81;21505;-76
2021/09/05 01:04:51;;;;;;;12.60;4.83;;;;;;;11.85;67.21;101183.06;1755630;81;21020;-76
2021/09/05 01:07:17;;;;;;;10.23;5.25;;;;;;;11.83;67.26;101179.20;1756209;81;21080;-77
2021/09/05 01:09:43;;;;;;;8.53;4.72;;;;;;;11.80;67.26;101178.19;1755982;81;21142;-76
2021/09/05 01:12:09;;;;;;;8.05;4.47;;;;;;;11.77;67.30;101191.03;1756045;81;20967;-76
2021/09/05 01:14:35;;;;;;;11.28;4.90;;;;;;;11.72;67.36;101190.65;1756070;81;21006;-76
2021/09/05 01:17:01;;;;;;;10.68;5.00;;;;;;;11.68;67.42;101191.95;1755871;81;21002;-76
2021/09/05 01:19:27;;;;;;;8.85;4.75;;;;;;;11.64;67.49;101195.93;1754061;81;21059;-76
2021/09/05 01:21:54;;;;;;;15.48;5.15;;;;;;;11.59;67.53;101199.56;1749687;82;21167;-76
2021/09/05 01:24:23;;;;;;;7.78;4.50;;;;;;;11.53;67.62;101200.55;1750002;82;21008;-76
2021/09/05 01:26:50;;;;;;;10.15;4.70;;;;;;;11.48;67.68;101203.33;1727609;83;21001;-76
2021/09/05 01:29:16;;;;;;;8.98;4.37;;;;;;;11.42;67.77;101200.80;1732284;82;21598;-76
2021/09/05 01:31:49;;;;;;;11.25;4.65;;;;;;;11.38;67.82;101203.92;1714426;83;21027;-76
2021/09/05 01:34:18;;;;;;;8.85;5.05;;;;;;;11.32;67.91;101206.73;1713953;83;22184;-76
2021/09/05 01:36:45;;;;;;;11.08;5.42;;;;;;;11.27;67.99;101209.01;1714385;83;21043;-76
2021/09/05 01:39:12;;;;;;;8.30;4.70;;;;;;;11.20;68.07;101205.28;1724197;81;21549;-76
2021/09/05 01:41:39;;;;;;;13.50;4.47;;;;;;;11.15;68.18;101207.59;1737653;82;21126;-77
2021/09/05 01:44:11;;;;;;;13.10;4.87;;;;;;;11.11;68.24;101218.23;1739961;82;20988;-77
2021/09/05 01:46:37;;;;;;;10.55;4.85;;;;;;;11.06;68.32;101207.16;1740553;81;21547;-77
2021/09/05 01:49:04;;;;;;;6.97;4.30;;;;;;;11.00;68.42;101214.45;1739515;81;21496;-77
2021/09/05 01:51:30;;;;;;;8.23;4.40;;;;;;;10.96;68.52;101225.08;1727926;81;21011;-77
2021/09/05 01:53:57;;;;;;;8.18;4.85;;;;;;;10.93;68.60;101217.38;1724144;82;20907;-77
2021/09/05 01:56:25;;;;;;;8.28;4.50;;;;;;;10.89;68.71;101224.01;1726919;82;21090;-77
2021/09/05 01:58:51;;;;;;;9.85;5.33;;;;;;;10.84;68.80;101221.79;1729747;81;21130;-77
2021/09/05 02:01:17;;;;;;;7.62;4.35;;;;;;;10.81;68.88;101221.25;1723961;82;21551;-77
2021/09/05 02:03:43;;;;;;;8.83;4.67;;;;;;;10.77;68.97;101226.05;1732930;81;21015;-77
2021/09/05 02:06:09;;;;;;;8.50;4.83;;;;;;;10.76;69.06;101230.22;1740446;82;21003;-77
2021/09/05 02:08:35;;;;;;;11.80;4.95;;;;;;;10.72;69.13;101225.68;1740069;82;20999;-77
2021/09/05 02:11:01;;;;;;;12.20;5.65;;;;;;;10.69;69.23;101230.48;1740220;82;21192;-77
2021/09/05 02:13:27;;;;;;;8.35;5.10;;;;;;;10.65;69.31;101226.42;1729027;82;20987;-77
2021/09/05 02:15:53;;;;;;;10.25;5.28;;;;;;;10.62;69.39;101236.91;1739922;81;21062;-77
2021/09/05 02:18:19;;;;;;;16.62;6.03;;;;;;;10.57;69.45;101235.66;1731413;82;20920;-77
2021/09/05 02:20:45;;;;;;;10.15;5.83;;;;;;;10.52;69.55;101238.28;1719995;83;21008;-77
2021/09/05 02:23:11;;;;;;;13.62;5.70;;;;;;;10.48;69.63;101240.08;1719624;83;21047;-77
2021/09/05 02:25:37;;;;;;;10.23;5.08;;;;;;;10.42;69.73;101240.65;1720150;83;21047;-77
2021/09/05 02:28:04;;;;;;;8.75;5.12;;;;;;;10.35;69.82;101243.07;1719603;83;21031;-77
2021/09/05 02:30:30;;;;;;;9.75;5.53;;;;;;;10.31;69.91;101245.69;1728782;82;21066;-76
2021/09/05 02:32:56;;;;;;;9.53;5.28;;;;;;;10.26;70.03;101245.30;1740377;82;20915;-76
2021/09/05 02:35:22;;;;;;;10.88;5.95;;;;;;;10.21;70.12;101239.56;1740243;82;21161;-76
2021/09/05 02:37:48;;;;;;;11.85;6.05;;;;;;;10.15;70.23;101245.48;1740235;82;20988;-76
2021/09/05 02:40:14;;;;;;;11.73;5.60;;;;;;;10.13;70.34;101246.59;1739949;82;21015;-76
2021/09/05 02:42:39;;;;;;;10.90;5.30;;;;;;;10.07;70.43;101249.33;1740126;82;20915;-77
2021/09/05 02:45:06;;;;;;;12.93;6.45;;;;;;;10.06;70.54;101257.00;1740308;82;20999;-77
2021/09/05 02:47:33;;;;;;;8.60;5.25;;;;;;;10.01;70.66;101253.43;1740064;82;21233;-77
2021/09/05 02:49:59;;;;;;;8.20;5.72;;;;;;;9.97;70.76;101254.70;1740093;82;21015;-76
2021/09/05 02:52:25;;;;;;;11.50;6.05;;;;;;;9.92;70.88;101256.13;1740252;82;20983;-76
2021/09/05 02:54:51;;;;;;;8.43;5.70;;;;;;;9.88;70.99;101253.41;1740168;82;21565;-77
2021/09/05 02:57:17;;;;;;;18.90;6.00;;;;;;;9.85;71.08;101259.03;1740047;82;20990;-76
2021/09/05 02:59:43;;;;;;;12.13;6.05;;;;;;;9.82;71.17;101261.95;1740197;82;21120;-77
2021/09/05 03:02:10;;;;;;;15.83;6.90;;;;;;;9.77;71.28;101273.06;1740271;82;21058;-76
2021/09/05 03:04:36;;;;;;;11.80;6.65;;;;;;;9.73;71.38;101278.32;1740319;82;21031;-76
2021/09/05 03:07:02;;;;;;;11.43;6.25;;;;;;;9.71;71.47;101271.47;1731322;82;20999;-76
2021/09/05 03:09:28;;;;;;;11.95;6.30;;;;;;;9.69;71.55;101277.41;1720279;83;21035;-77
2021/09/05 03:11:54;;;;;;;10.25;5.67;;;;;;;9.65;71.64;101274.67;1720448;82;21134;-77
2021/09/05 03:14:20;;;;;;;10.38;5.85;;;;;;;9.62;71.75;101272.30;1735588;82;21011;-76
2021/09/05 03:16:46;;;;;;;14.28;7.33;;;;;;;9.61;71.83;101276.78;1731504;82;21598;-76
2021/09/05 03:19:12;;;;;;;11.00;6.47;;;;;;;9.60;71.91;101272.95;1719883;82;21063;-76
2021/09/05 03:21:39;;;;;;;11.90;6.45;;;;;;;9.60;72.01;101275.61;1729269;82;20962;-76
2021/09/05 03:24:05;;;;;;;11.73;7.45;;;;;;;9.57;72.07;101270.58;1728385;81;21093;-76
2021/09/05 03:26:33;;;;;;;10.95;5.97;;;;;;;9.54;72.17;101274.34;1734748;82;21090;-76
2021/09/05 03:29:01;;;;;;;11.33;6.17;;;;;;;9.52;72.26;101277.16;1730697;82;21479;-76
2021/09/05 03:31:27;;;;;;;17.42;7.28;;;;;;;9.50;72.34;101271.12;1725072;81;21058;-76
2021/09/05 03:33:52;;;;;;;12.15;6.78;;;;;;;9.50;72.40;101276.44;1740714;81;21258;-76
2021/09/05 03:36:18;;;;;;;12.15;7.05;;;;;;;9.48;72.49;101273.09;1749345;81;21913;-77
2021/09/05 03:38:44;;;;;;;10.93;6.55;;;;;;;9.47;72.56;101278.55;1723983;81;21653;-77
2021/09/05 03:41:11;;;;;;;12.47;6.67;;;;;;;9.46;72.64;101279.03;1723398;82;21046;-77
2021/09/05 03:43:37;;;;;;;11.63;5.70;;;;;;;9.46;72.72;101279.55;1735481;82;20995;-77
2021/09/05 03:46:03;;;;;;;11.35;6.20;;;;;;;9.46;72.77;101283.03;1729459;81;21007;-77
2021/09/05 03:48:30;;;;;;;9.18;6.00;;;;;;;9.47;72.84;101282.05;1726691;81;21092;-77
2021/09/05 03:50:56;;;;;;;13.32;6.72;;;;;;;9.49;72.92;101283.26;1732563;82;20996;-77
2021/09/05 03:53:22;;;;;;;12.55;6.12;;;;;;;9.49;72.99;101280.11;1733578;81;21536;-77
2021/09/05 03:55:48;;;;;;;12.85;6.90;;;;;;;9.51;73.06;101286.12;1728498;81;21010;-77
2021/09/05 03:58:14;;;;;;;15.15;6.00;;;;;;;9.52;73.14;101286.97;1726427;81;21011;-77
2021/09/05 04:00:40;;;;;;;13.18;6.62;;;;;;;9.52;73.22;101291.80;1744127;81;21705;-76
2021/09/05 04:03:06;;;;;;;15.10;7.05;;;;;;;9.54;73.25;101292.48;1736725;81;21575;-76
2021/09/05 04:05:32;;;;;;;11.38;6.58;;;;;;;9.53;73.33;101294.80;1742363;81;21649;-76
2021/09/05 04:10:31;;;;;;;10.55;5.95;;;;;;;9.51;73.47;101298.10;1714814;83;21540;-77
2021/09/05 04:12:57;;;;;;;9.88;5.80;;;;;;;9.51;73.52;101295.44;1721619;82;21095;-77
2021/09/05 04:15:23;;;;;;;10.88;6.35;;;;;;;9.51;73.58;101296.77;1722736;82;21085;-77
2021/09/05 04:17:49;;;;;;;10.88;6.08;;;;;;;9.50;73.62;101311.06;1715216;82;20928;-77
2021/09/05 04:20:16;;;;;;;15.05;6.00;;;;;;;9.51;73.68;101310.09;1737897;82;20995;-77
2021/09/05 04:22:42;;;;;;;14.58;6.72;;;;;;;9.51;73.74;101307.42;1727030;82;21107;-78
2021/09/05 04:25:10;;;;;;;12.00;6.65;;;;;;;9.51;73.77;101317.23;1715158;82;21207;-77
2021/09/05 04:27:37;;;;;;;10.65;6.90;;;;;;;9.53;73.84;101314.77;1721384;82;21495;-77
2021/09/05 04:30:05;;;;;;;14.15;6.58;;;;;;;9.54;73.87;101319.12;1735688;82;20960;-77
2021/09/05 04:32:32;;;;;;;10.98;6.58;;;;;;;9.57;73.91;101310.00;1740433;82;21051;-77
2021/09/05 04:34:58;;;;;;;11.40;6.70;;;;;;;9.60;73.97;101315.55;1725958;82;21126;-77
2021/09/05 04:37:24;;;;;;;14.18;5.97;;;;;;;9.62;74.01;101314.42;1714849;83;21143;-77
2021/09/05 04:39:50;;;;;;;12.07;6.45;;;;;;;9.66;74.04;101316.31;1732808;82;21523;-77
2021/09/05 04:42:16;;;;;;;12.80;6.62;;;;;;;9.68;74.06;101324.50;1728738;82;21003;-77
2021/09/05 04:44:42;;;;;;;15.25;6.53;;;;;;;9.99;74.25;101321.19;1725814;82;21040;-77
2021/09/05 04:47:08;;;;;;;12.90;6.60;;;;;;;10.44;74.30;101320.02;1735738;82;21067;-77
2021/09/05 04:49:34;;;;;;;10.30;6.08;;;;;;;11.02;74.20;101319.22;1741473;82;21149;-77
2021/09/05 04:52:00;;;;;;;9.60;5.58;;;;;;;11.52;74.01;101321.73;1730385;82;21023;-77
2021/09/05 04:54:27;;;;;;;9.05;5.37;;;;;;;11.92;73.75;101325.77;1716508;82;21047;-77
2021/09/05 04:56:53;;;;;;;11.70;5.53;;;;;;;12.27;73.48;101325.68;1715056;82;21110;-77
2021/09/05 04:59:19;;;;;;;10.32;5.62;;;;;;;12.71;73.24;101330.89;1715002;83;21532;-77
2021/09/05 05:01:45;;;;;;;8.80;5.97;;;;;;;13.05;72.88;101336.23;1718141;82;21793;-77
2021/09/05 05:04:11;;;;;;;10.55;4.62;;;;;;;13.34;72.52;101338.83;1737248;82;21016;-78
2021/09/05 05:06:42;;;;;;;9.13;5.25;;;;;;;13.69;72.19;101344.89;1727134;82;21306;-78
2021/09/05 05:09:09;;;;;;;8.25;4.65;;;;;;;13.96;71.73;101340.55;1719703;82;21697;-78
2021/09/05 05:11:35;;;;;;;10.70;6.03;;;;;;;14.26;71.31;101346.53;1734514;82;21035;-78
2021/09/05 05:14:01;;;;;;;9.95;5.17;;;;;;;14.61;70.81;101345.80;1683483;83;21178;-78
2021/09/05 05:16:27;;;;;;;7.90;5.05;;;;;;;14.73;70.17;101349.80;1709941;81;21039;-78
2021/09/05 05:18:53;;;;;;;9.28;5.08;;;;;;;14.73;69.55;101350.64;1731197;82;20992;-78
2021/09/05 05:21:19;;;;;;;8.58;4.80;;;;;;;14.78;69.02;101352.28;1697415;82;21002;-78
2021/09/05 05:23:45;;;;;;;10.23;5.42;;;;;;;14.63;67.44;101342.45;1709432;81;21050;-79
2021/09/05 05:26:11;;;;;;;7.92;4.42;;;;;;;14.63;67.44;101342.45;1738956;82;21102;-78
2021/09/05 05:28:37;;;;;;;7.35;4.90;;;;;;;14.55;67.10;101363.45;1723142;83;20997;-78
2021/09/05 05:31:03;;;;;;;8.90;5.45;;;;;;;14.11;67.25;101368.34;1738855;82;21032;-78
2021/09/05 05:33:29;;;;;;;10.23;5.25;;;;;;;13.84;67.48;101375.40;1725141;83;21413;-77
2021/09/05 05:35:55;;;;;;;8.80;5.00;;;;;;;13.75;67.63;101372.39;1744670;82;21504;-78
2021/09/05 05:38:23;;;;;;;8.70;4.97;;;;;;;13.75;67.57;101377.75;1744626;82;21791;-78
2021/09/05 05:40:49;;;;;;;12.33;5.40;;;;;;;13.78;67.64;101376.08;1710526;83;21037;-78
2021/09/05 05:43:15;;;;;;;6.83;4.55;;;;;;;13.87;67.32;101385.29;1735661;81;21058;-78
2021/09/05 05:45:42;;;;;;;11.18;4.78;;;;;;;13.87;67.32;101385.29;1714753;83;21715;-79
2021/09/05 05:48:08;;;;;;;6.45;4.72;;;;;;;13.91;67.30;101379.09;1693674;83;21126;-78
2021/09/05 05:50:34;;;;;;;9.03;4.83;;;;;;;13.95;67.19;101381.77;1697354;83;21020;-78
2021/09/05 05:53:01;;;;;;;8.88;4.95;;;;;;;13.89;67.00;101382.45;1708207;81;21543;-78
2021/09/05 05:55:27;;;;;;;8.38;5.22;;;;;;;13.78;66.88;101374.73;1699250;82;21496;-78
2021/09/05 05:57:53;;;;;;;9.33;5.22;;;;;;;13.76;66.69;101363.32;1700005;83;21047;-78
2021/09/05 06:00:20;;;;;;;8.00;4.90;;;;;;;13.89;66.56;101382.45;1723717;83;20892;-78
2021/09/05 06:02:46;;;;;;;9.05;4.80;;;;;;;14.02;66.40;101393.52;1745799;81;21160;-78
2021/09/05 06:05:13;;;;;;;7.62;4.60;;;;;;;14.02;66.14;101386.80;1724239;83;21026;-78
2021/09/05 06:07:39;;;;;;;8.45;4.90;;;;;;;14.00;65.97;101396.34;1724063;83;21018;-78
2021/09/05 06:10:06;;;;;;;8.03;5.08;;;;;;;14.12;65.87;101394.17;1724492;83;20994;-79
2021/09/05 06:12:32;;;;;;;7.40;4.85;;;;;;;14.22;65.72;101396.17;1724265;83;21073;-78
2021/09/05 06:14:58;;;;;;;7.45;4.37;;;;;;;14.31;65.46;101398.36;1724343;83;21140;-78
2021/09/05 06:17:24;;;;;;;7.37;4.62;;;;;;;14.25;65.42;101401.20;1724540;83;21499;-78
2021/09/05 06:19:50;;;;;;;7.58;4.40;;;;;;;14.37;65.07;101402.58;1724379;83;21482;-78
2021/09/05 06:22:16;;;;;;;7.83;4.80;;;;;;;14.46;64.88;101406.09;1726511;82;21045;-78
2021/09/05 06:24:43;;;;;;;8.53;4.70;;;;;;;14.50;64.67;101404.22;1744139;81;21546;-78
2021/09/05 06:27:09;;;;;;;8.30;4.65;;;;;;;14.75;64.58;101409.53;1726736;83;21859;-78
2021/09/05 06:29:35;;;;;;;8.20;4.80;;;;;;;14.81;64.25;101406.17;1726561;83;21022;-78
2021/09/05 06:32:01;;;;;;;9.30;4.65;;;;;;;14.87;64.17;101413.53;1726411;82;21065;-77
2021/09/05 06:34:27;;;;;;;8.98;4.37;;;;;;;14.91;63.94;101417.55;1726564;82;21066;-78
2021/09/05 06:36:53;;;;;;;8.33;4.90;;;;;;;14.96;63.78;101423.23;1725504;81;21018;-78
2021/09/05 06:39:19;;;;;;;6.17;4.10;;;;;;;15.06;63.62;101423.86;1722029;83;21633;-78
2021/09/05 06:41:45;;;;;;;11.15;4.28;;;;;;;15.17;63.44;101423.48;1722573;81;21062;-79
2021/09/05 06:44:11;;;;;;;7.72;4.15;;;;;;;15.31;63.23;101432.65;1721815;83;21043;-78
2021/09/05 06:46:37;;;;;;;7.22;3.85;;;;;;;15.34;63.00;101427.77;1736870;82;21014;-79
2021/09/05 06:49:03;;;;;;;7.87;4.35;;;;;;;15.43;62.85;101426.72;1730023;81;21035;-79
2021/09/05 06:51:29;;;;;;;6.83;4.67;;;;;;;15.48;62.61;101435.11;1722212;83;21713;-78
2021/09/05 06:53:55;;;;;;;6.70;4.17;;;;;;;15.52;62.39;101425.38;1732679;82;21567;-79
2021/09/05 06:56:21;;;;;;;6.90;3.70;;;;;;;15.58;62.19;101427.34;1739892;81;21019;-79
2021/09/05 06:58:47;;;;;;;7.92;4.33;;;;;;;15.77;62.06;101433.59;1739645;82;21106;-79
2021/09/05 07:01:13;;;;;;;7.62;4.03;;;;;;;15.84;61.80;101428.67;1727746;83;21101;-79
2021/09/05 07:03:39;;;;;;;6.80;3.90;;;;;;;15.97;61.56;101438.86;1734494;82;21067;-79
2021/09/05 07:06:05;;;;;;;7.28;3.95;;;;;;;16.05;61.19;101436.59;1713518;83;21098;-79
2021/09/05 07:08:31;;;;;;;7.10;3.98;;;;;;;16.12;60.98;101434.34;1722017;83;21015;-79
2021/09/05 07:10:57;;;;;;;7.75;3.85;;;;;;;16.16;60.65;101442.39;1724303;81;21015;-79
2021/09/05 07:13:23;;;;;;;5.97;3.35;;;;;;;16.28;60.45;101440.11;1737291;82;20895;-79
2021/09/05 07:15:49;;;;;;;7.10;3.80;;;;;;;16.50;60.36;101446.79;1739252;82;21142;-79
2021/09/05 07:18:15;;;;;;;5.25;3.30;;;;;;;16.62;60.02;101439.65;1739198;82;21054;-79
2021/09/05 07:20:41;;;;;;;8.33;3.70;;;;;;;16.63;59.79;101448.06;1739299;82;21499;-76
2021/09/05 07:23:07;;;;;;;7.42;4.05;;;;;;;16.79;59.69;101454.63;1708488;83;21015;-76
2021/09/05 07:25:33;;;;;;;10.90;3.52;;;;;;;16.91;59.52;101452.65;1706833;84;21018;-77
2021/09/05 07:27:59;;;;;;;6.60;3.25;;;;;;;17.01;59.38;101456.91;1707267;83;21176;-76
2021/09/05 07:30:25;;;;;;;6.58;3.20;;;;;;;17.17;59.25;101460.78;1709885;83;21498;-76
2021/09/05 07:32:51;;;;;;;8.33;3.70;;;;;;;17.38;59.16;101460.86;1709717;83;21017;-77
2021/09/05 07:35:17;;;;;;;5.80;3.20;;;;;;;17.51;58.82;101457.47;1709023;83;21106;-77
2021/09/05 07:37:47;;;;;;;8.53;3.70;;;;;;;17.48;58.45;101465.44;1705810;83;20931;-77
2021/09/05 07:40:14;;;;;;;7.42;2.85;;;;;;;17.41;58.12;101466.71;1707313;83;21106;-77
2021/09/05 07:42:40;;;;;;;4.62;2.77;;;;;;;17.43;57.85;101460.60;1706780;84;21078;-77
2021/09/05 07:45:07;;;;;;;6.00;2.83;;;;;;;17.48;57.52;101462.23;1706724;83;21054;-77
2021/09/05 07:47:33;;;;;;;5.25;3.10;;;;;;;17.52;57.06;101467.25;1706955;83;21398;-76
2021/09/05 08:16:28;;;;;;;9.00;2.60;;;;;;;17.91;52.90;101486.59;1786853;78;22655;-78
2021/09/05 08:18:54;;;;;;;5.15;2.47;;;;;;;17.88;52.67;101495.08;1790583;80;20991;-78
2021/09/05 08:21:20;;;;;;;4.45;2.87;;;;;;;18.01;52.48;101496.59;1790385;79;21124;-78
2021/09/05 08:23:46;;;;;;;10.38;3.10;;;;;;;18.01;52.10;101496.59;1774826;80;21527;-78
2021/09/05 08:26:12;;;;;;;6.92;2.33;;;;;;;18.10;51.83;101498.64;1760386;80;20904;-78
2021/09/05 08:28:39;;;;;;;5.97;2.60;;;;;;;18.16;51.59;101498.70;1759182;80;21020;-78
2021/09/05 08:31:05;;;;;;;11.15;2.47;;;;;;;18.19;51.26;101506.42;1790902;80;20989;-78
2021/09/05 08:33:31;;;;;;;3.42;2.25;;;;;;;18.26;51.12;101497.87;1769742;80;21107;-78
2021/09/05 08:35:57;;;;;;;4.12;2.35;;;;;;;18.35;50.92;101496.72;1790764;80;21558;-78
2021/09/05 08:38:24;;;;;;;6.65;2.30;;;;;;;18.35;50.49;101502.63;1789015;80;21042;-78
2021/09/05 08:40:50;;;;;;;3.27;2.30;;;;;;;18.35;50.28;101513.44;1788298;80;21030;-78
2021/09/05 08:43:18;;;;;;;4.20;2.47;;;;;;;18.36;49.87;101501.11;1790958;80;20983;-79
2021/09/05 08:45:45;;;;;;;3.60;2.12;;;;;;;18.53;49.74;101515.71;1781933;80;21688;-78
2021/09/05 08:48:14;;;;;;;3.33;2.00;;;;;;;18.54;49.34;101509.29;1790913;80;21038;-78
2021/09/05 08:50:40;;;;;;;3.02;2.02;;;;;;;18.58;49.00;101510.58;1788501;80;21007;-78
2021/09/05 08:53:06;;;;;;;6.95;1.95;;;;;;;18.66;48.73;101510.41;1788726;80;21007;-78
2021/09/05 08:55:32;;;;;;;3.22;1.90;;;;;;;18.69;48.56;101510.02;1775169;80;20964;-78
2021/09/05 08:57:58;;;;;;;5.33;2.10;;;;;;;18.84;48.48;101510.77;1777066;80;21101;-79
2021/09/05 09:00:24;;;;;;;3.70;2.12;;;;;;;18.87;48.37;101513.08;1752883;81;21480;-78
2021/09/05 09:02:53;;;;;;;5.30;1.95;;;;;;;18.94;48.32;101512.09;1755734;81;21511;-78
2021/09/05 09:05:34;;;;;;;4.03;2.45;;;;;;;18.99;48.12;101519.62;1725093;83;21595;-78
2021/09/05 09:08:05;;;;;;;3.30;1.82;;;;;;;19.04;48.08;101517.14;1732141;81;21014;-78
2021/09/05 09:10:33;;;;;;;2.98;1.92;;;;;;;19.26;48.08;101521.45;1742928;81;21099;-78
2021/09/05 09:12:59;;;;;;;2.92;1.90;;;;;;;19.30;47.68;101523.24;1737471;81;21030;-78
2021/09/05 09:15:32;;;;;;;4.28;2.25;;;;;;;19.22;47.18;101520.17;1736801;81;21448;-78
2021/09/05 09:18:03;;;;;;;5.45;2.20;;;;;;;19.16;46.71;101524.20;1731064;80;21046;-78
2021/09/05 09:20:41;;;;;;;6.33;2.08;;;;;;;19.23;46.74;101516.45;1769744;80;21064;-78
2021/09/05 09:23:15;;;;;;;3.58;2.12;;;;;;;19.35;46.63;101522.95;1758398;81;22229;-78
2021/09/05 09:26:13;;;;;;;4.97;1.92;;;;;;;19.31;46.39;101521.70;1758466;81;20983;-78
2021/09/05 09:28:45;;;;;;;3.22;1.72;;;;;;;19.34;46.32;101518.59;1758290;81;21078;-78
2021/09/05 09:31:15;;;;;;;4.92;2.17;;;;;;;19.37;46.06;101518.19;1757974;81;21054;-78
2021/09/05 09:33:44;;;;;;;5.45;2.37;;;;;;;19.27;45.82;101509.61;1758313;81;21007;-78
2021/09/05 09:36:15;;;;;;;5.33;2.25;;;;;;;19.26;45.82;101513.34;1758316;81;22021;-78
2021/09/05 09:38:47;;;;;;;3.10;1.95;;;;;;;19.29;45.75;101510.23;1730107;81;21559;-78
2021/09/05 09:41:16;;;;;;;3.45;2.30;;;;;;;19.26;45.67;101505.73;1757479;81;21047;-78
2021/09/05 09:43:52;;;;;;;3.22;2.05;;;;;;;19.39;45.78;101505.28;1758343;81;21488;-78
2021/09/05 09:46:22;;;;;;;5.20;2.40;;;;;;;19.47;45.66;101512.95;1758116;81;21029;-78
2021/09/05 09:48:50;;;;;;;3.02;2.02;;;;;;;19.42;45.68;101513.03;1756986;81;21350;-77
2021/09/05 09:51:16;;;;;;;5.28;1.98;;;;;;;19.39;45.66;101512.05;1758383;81;20991;-78
2021/09/05 09:53:42;;;;;;;5.53;2.65;;;;;;;19.42;45.73;101515.73;1758335;81;20971;-78
2021/09/05 09:56:09;;;;;;;3.08;1.98;;;;;;;19.39;45.65;101513.41;1757720;81;21063;-78
2021/09/05 09:58:36;;;;;;;4.15;2.33;;;;;;;19.37;45.37;101514.65;1758550;81;20988;-78
2021/09/05 10:01:03;;;;;;;3.52;2.17;;;;;;;19.52;45.42;101506.44;1758099;81;21051;-78
2021/09/05 10:03:30;;;;;;;5.45;2.52;;;;;;;19.50;45.18;101503.08;1758168;81;21086;-77
2021/09/05 10:06:00;;;;;;;3.85;2.47;;;;;;;19.51;45.11;101503.41;1758260;81;21539;-78
2021/09/05 10:08:26;;;;;;;6.50;2.50;;;;;;;19.58;45.23;101510.52;1758250;81;21043;-78
2021/09/05 10:10:55;;;;;;;7.85;3.00;;;;;;;19.53;45.28;101504.05;1758354;81;21018;-78
2021/09/05 10:13:21;;;;;;;6.55;2.70;;;;;;;19.64;45.41;101507.51;1758099;81;21788;-78
2021/09/05 10:15:47;;;;;;;5.60;2.30;;;;;;;19.65;45.31;101520.02;1759376;81;21006;-78
2021/09/05 10:18:13;;;;;;;5.35;2.42;;;;;;;19.60;45.32;101511.68;1760469;81;20994;-78
2021/09/05 10:20:39;;;;;;;5.37;2.17;;;;;;;19.69;45.42;101510.45;1761172;81;21094;-78
2021/09/05 10:23:05;;;;;;;4.45;2.45;;;;;;;19.78;45.28;101511.94;1761148;81;20979;-78
2021/09/05 10:25:31;;;;;;;4.10;1.77;;;;;;;19.74;45.15;101512.02;1761339;81;21343;-78
2021/09/05 10:27:57;;;;;;;5.47;2.27;;;;;;;19.70;45.04;101506.17;1761326;81;21061;-78
2021/09/05 10:30:24;;;;;;;6.00;2.27;;;;;;;19.67;44.78;101501.69;1761103;81;21042;-78
2021/09/05 10:32:59;;;;;;;7.55;2.02;;;;;;;19.62;44.68;101508.24;1726629;81;21579;-78
2021/09/05 10:35:32;;;;;;;5.85;2.20;;;;;;;19.69;44.77;101502.34;1738455;82;21089;-78
2021/09/05 10:38:18;;;;;;;5.35;1.90;;;;;;;19.75;44.67;101501.00;1736518;82;21172;-78
2021/09/05 10:40:58;;;;;;;5.40;2.12;;;;;;;19.80;44.73;101497.18;1724481;82;21010;-78
2021/09/05 10:43:50;;;;;;;2.85;1.92;;;;;;;19.84;44.57;101500.31;1714751;82;21062;-78
2021/09/05 10:46:19;;;;;;;2.12;1.70;;;;;;;19.80;44.47;101508.01;1716814;82;21444;-78
2021/09/05 10:48:56;;;;;;;7.35;2.50;;;;;;;19.83;44.46;101495.93;1726032;82;21094;-78
2021/09/05 10:51:37;;;;;;;2.67;2.00;;;;;;;19.95;44.49;101496.98;1711171;83;21195;-78
2021/09/05 10:54:06;;;;;;;5.70;2.30;;;;;;;19.99;44.46;101500.96;1722688;82;21029;-78
2021/09/05 10:56:43;;;;;;;3.98;2.10;;;;;;;19.99;44.40;101502.31;1725684;83;21490;-78
2021/09/05 10:59:23;;;;;;;6.08;1.90;;;;;;;20.06;44.39;101509.09;1725836;83;21648;-78
2021/09/05 11:01:51;;;;;;;2.65;1.82;;;;;;;20.11;44.19;101505.27;1724014;83;21114;-78
2021/09/05 11:04:24;;;;;;;4.67;1.85;;;;;;;20.04;44.03;101501.20;1724637;82;21083;-78
2021/09/05 11:07:06;;;;;;;8.75;2.47;;;;;;;20.00;43.93;101495.03;1716422;82;21022;-78
2021/09/05 11:09:36;;;;;;;3.55;2.08;;;;;;;19.99;43.80;101490.13;1710608;82;21093;-77
2021/09/05 11:12:11;;;;;;;5.83;2.17;;;;;;;20.05;43.86;101501.52;1723414;81;21114;-77
2021/09/05 11:14:49;;;;;;;5.78;1.95;;;;;;;20.10;43.51;101502.23;1738588;82;21106;-76
2021/09/05 11:17:22;;;;;;;2.72;2.12;;;;;;;20.05;43.39;101489.34;1735213;81;21286;-76
2021/09/05 11:20:02;;;;;;;3.47;2.08;;;;;;;20.03;43.31;101497.33;1731927;81;21086;-77
2021/09/05 11:22:43;;;;;;;5.80;2.35;;;;;;;20.08;43.30;101502.46;1721292;81;21030;-76
2021/09/05 11:25:14;;;;;;;4.47;2.08;;;;;;;20.05;43.07;101509.64;1729876;81;21044;-76
2021/09/05 11:28:01;;;;;;;4.00;1.87;;;;;;;20.03;43.06;101510.87;1722647;81;21110;-76
2021/09/05 11:30:39;;;;;;;3.12;2.27;;;;;;;20.03;43.05;101498.68;1718994;81;21793;-76
2021/09/05 11:33:08;;;;;;;3.40;2.45;;;;;;;19.97;42.91;101504.92;1716686;81;21547;-76
2021/09/05 11:35:43;;;;;;;5.60;2.13;;;;;;;19.97;42.99;101502.22;1745020;81;20996;-76
2021/09/05 11:38:09;;;;;;;4.87;2.15;;;;;;;20.05;43.06;101504.23;1696600;84;21589;-76
2021/09/05 11:40:51;;;;;;;3.83;2.05;;;;;;;20.08;43.03;101505.17;1678983;84;21078;-76
2021/09/05 11:43:35;;;;;;;2.95;1.95;;;;;;;20.14;43.05;101500.28;1727455;81;21234;-76
2021/09/05 11:46:15;;;;;;;5.53;2.17;;;;;;;20.15;43.01;101499.25;1741743;81;21036;-76
2021/09/05 11:48:56;;;;;;;3.85;2.08;;;;;;;20.23;43.07;101497.67;1729368;81;28684;-76
2021/09/05 11:51:22;;;;;;;5.55;2.02;;;;;;;20.27;43.07;101490.84;1724175;81;21040;-77
2021/09/05 11:54:01;;;;;;;7.08;2.40;;;;;;;20.39;43.08;101500.55;1729883;81;21511;-76
2021/09/05 11:56:30;;;;;;;;;;;;;;;20.41;43.02;101493.88;1730253;81;21047;-76